sensor_id;sensor_type;location;lat;lon;timestamp;P1;durP1;ratioP1;P2;durP2;ratioP2
39680;SDS011;26327;42.550;23.120;2024-03-29T00:01:48;6.68;;;1.63;;
39680;SDS011;26327;42.550;23.120;2024-03-29T00:04:13;8.20;;;2.40;;
39680;SDS011;26327;42.550;23.120;2024-03-29T00:06:39;5.97;;;1.70;;
39680;SDS011;26327;42.550;23.120;2024-03-29T00:09:04;6.00;;;1.30;;
39680;SDS011;26327;42.550;23.120;2024-03-29T00:11:30;12.18;;;2.58;;
39680;SDS011;26327;42.550;23.120;2024-03-29T00:13:56;7.25;;;2.15;;
39680;SDS011;26327;42.550;23.120;2024-03-29T00:16:21;5.47;;;1.40;;
39680;SDS011;26327;42.550;23.120;2024-03-29T00:18:50;7.22;;;1.88;;
39680;SDS011;26327;42.550;23.120;2024-03-29T00:21:16;5.43;;;1.20;;
39680;SDS011;26327;42.550;23.120;2024-03-29T00:23:42;3.97;;;1.20;;
39680;SDS011;26327;42.550;23.120;2024-03-29T00:26:09;7.97;;;1.75;;
39680;SDS011;26327;42.550;23.120;2024-03-29T00:28:34;3.47;;;1.38;;
39680;SDS011;26327;42.550;23.120;2024-03-29T00:30:59;3.67;;;1.20;;
39680;SDS011;26327;42.550;23.120;2024-03-29T00:33:25;9.52;;;1.48;;
39680;SDS011;26327;42.550;23.120;2024-03-29T00:35:50;6.10;;;2.25;;
39680;SDS011;26327;42.550;23.120;2024-03-29T00:38:15;6.38;;;1.90;;
39680;SDS011;26327;42.550;23.120;2024-03-29T00:40:41;3.92;;;1.33;;
39680;SDS011;26327;42.550;23.120;2024-03-29T00:43:06;6.70;;;1.25;;
39680;SDS011;26327;42.550;23.120;2024-03-29T00:45:32;4.40;;;1.30;;
39680;SDS011;26327;42.550;23.120;2024-03-29T00:47:58;8.32;;;1.73;;
39680;SDS011;26327;42.550;23.120;2024-03-29T00:50:23;7.80;;;2.15;;
39680;SDS011;26327;42.550;23.120;2024-03-29T00:52:48;7.90;;;2.83;;
39680;SDS011;26327;42.550;23.120;2024-03-29T00:55:15;8.30;;;2.22;;
39680;SDS011;26327;42.550;23.120;2024-03-29T00:57:40;4.88;;;1.30;;
39680;SDS011;26327;42.550;23.120;2024-03-29T01:00:06;5.10;;;1.40;;
39680;SDS011;26327;42.550;23.120;2024-03-29T01:02:32;7.00;;;1.73;;
39680;SDS011;26327;42.550;23.120;2024-03-29T01:04:57;4.43;;;0.90;;
39680;SDS011;26327;42.550;23.120;2024-03-29T01:07:23;7.80;;;1.98;;
39680;SDS011;26327;42.550;23.120;2024-03-29T01:09:48;6.00;;;2.08;;
39680;SDS011;26327;42.550;23.120;2024-03-29T01:12:13;8.23;;;1.60;;
39680;SDS011;26327;42.550;23.120;2024-03-29T01:14:39;7.75;;;2.25;;
39680;SDS011;26327;42.550;23.120;2024-03-29T01:17:04;5.20;;;1.40;;
39680;SDS011;26327;42.550;23.120;2024-03-29T01:19:31;5.70;;;1.40;;
39680;SDS011;26327;42.550;23.120;2024-03-29T01:21:57;13.98;;;3.58;;
39680;SDS011;26327;42.550;23.120;2024-03-29T01:24:23;4.32;;;0.98;;
39680;SDS011;26327;42.550;23.120;2024-03-29T01:26:49;3.42;;;0.77;;
39680;SDS011;26327;42.550;23.120;2024-03-29T01:29:14;4.00;;;0.85;;
39680;SDS011;26327;42.550;23.120;2024-03-29T01:31:40;3.03;;;1.35;;
39680;SDS011;26327;42.550;23.120;2024-03-29T01:34:05;5.20;;;1.40;;
39680;SDS011;26327;42.550;23.120;2024-03-29T01:36:30;3.42;;;1.13;;
39680;SDS011;26327;42.550;23.120;2024-03-29T01:38:56;5.38;;;1.67;;
39680;SDS011;26327;42.550;23.120;2024-03-29T01:41:23;7.18;;;2.50;;
39680;SDS011;26327;42.550;23.120;2024-03-29T01:43:50;3.45;;;1.05;;
39680;SDS011;26327;42.550;23.120;2024-03-29T01:46:16;3.20;;;0.80;;
39680;SDS011;26327;42.550;23.120;2024-03-29T01:48:44;9.10;;;1.90;;
39680;SDS011;26327;42.550;23.120;2024-03-29T01:51:10;6.28;;;1.70;;
39680;SDS011;26327;42.550;23.120;2024-03-29T01:53:37;6.05;;;1.92;;
39680;SDS011;26327;42.550;23.120;2024-03-29T01:56:03;4.93;;;0.90;;
39680;SDS011;26327;42.550;23.120;2024-03-29T01:58:29;2.67;;;0.98;;
39680;SDS011;26327;42.550;23.120;2024-03-29T02:00:57;5.65;;;1.73;;
39680;SDS011;26327;42.550;23.120;2024-03-29T02:03:24;3.03;;;1.27;;
39680;SDS011;26327;42.550;23.120;2024-03-29T02:05:50;6.28;;;1.45;;
39680;SDS011;26327;42.550;23.120;2024-03-29T02:08:17;6.15;;;1.92;;
39680;SDS011;26327;42.550;23.120;2024-03-29T02:10:43;8.77;;;2.88;;
39680;SDS011;26327;42.550;23.120;2024-03-29T02:13:10;12.77;;;3.13;;
39680;SDS011;26327;42.550;23.120;2024-03-29T02:15:36;7.30;;;2.28;;
39680;SDS011;26327;42.550;23.120;2024-03-29T02:18:01;5.00;;;1.30;;
39680;SDS011;26327;42.550;23.120;2024-03-29T02:20:27;14.25;;;2.58;;
39680;SDS011;26327;42.550;23.120;2024-03-29T02:22:58;3.88;;;1.20;;
39680;SDS011;26327;42.550;23.120;2024-03-29T02:25:36;6.45;;;1.95;;
39680;SDS011;26327;42.550;23.120;2024-03-29T02:28:03;3.97;;;1.17;;
39680;SDS011;26327;42.550;23.120;2024-03-29T02:30:29;4.30;;;1.80;;
39680;SDS011;26327;42.550;23.120;2024-03-29T02:32:55;6.53;;;1.27;;
39680;SDS011;26327;42.550;23.120;2024-03-29T02:35:21;2.78;;;1.00;;
39680;SDS011;26327;42.550;23.120;2024-03-29T02:37:47;11.02;;;3.10;;
39680;SDS011;26327;42.550;23.120;2024-03-29T02:40:12;7.28;;;2.25;;
39680;SDS011;26327;42.550;23.120;2024-03-29T02:42:37;12.63;;;3.53;;
39680;SDS011;26327;42.550;23.120;2024-03-29T02:45:03;4.45;;;1.45;;
39680;SDS011;26327;42.550;23.120;2024-03-29T02:47:29;5.53;;;1.65;;
39680;SDS011;26327;42.550;23.120;2024-03-29T02:49:54;6.25;;;1.73;;
39680;SDS011;26327;42.550;23.120;2024-03-29T02:52:20;7.95;;;2.42;;
39680;SDS011;26327;42.550;23.120;2024-03-29T02:54:45;8.15;;;1.73;;
39680;SDS011;26327;42.550;23.120;2024-03-29T02:57:10;4.43;;;1.25;;
39680;SDS011;26327;42.550;23.120;2024-03-29T02:59:36;5.45;;;1.60;;
39680;SDS011;26327;42.550;23.120;2024-03-29T03:02:01;7.03;;;1.75;;
39680;SDS011;26327;42.550;23.120;2024-03-29T03:04:27;11.00;;;2.58;;
39680;SDS011;26327;42.550;23.120;2024-03-29T03:06:52;7.13;;;3.10;;
39680;SDS011;26327;42.550;23.120;2024-03-29T03:09:17;9.18;;;4.07;;
39680;SDS011;26327;42.550;23.120;2024-03-29T03:12:01;11.15;;;4.70;;
39680;SDS011;26327;42.550;23.120;2024-03-29T03:14:27;7.22;;;2.90;;
39680;SDS011;26327;42.550;23.120;2024-03-29T03:16:52;3.03;;;1.00;;
39680;SDS011;26327;42.550;23.120;2024-03-29T03:19:18;5.13;;;1.30;;
39680;SDS011;26327;42.550;23.120;2024-03-29T03:21:43;9.80;;;3.05;;
39680;SDS011;26327;42.550;23.120;2024-03-29T03:24:09;9.50;;;3.63;;
39680;SDS011;26327;42.550;23.120;2024-03-29T03:26:36;14.20;;;7.32;;
39680;SDS011;26327;42.550;23.120;2024-03-29T03:29:02;13.85;;;5.15;;
39680;SDS011;26327;42.550;23.120;2024-03-29T03:31:27;14.27;;;5.88;;
39680;SDS011;26327;42.550;23.120;2024-03-29T03:33:53;14.35;;;6.07;;
39680;SDS011;26327;42.550;23.120;2024-03-29T03:36:18;10.48;;;4.13;;
39680;SDS011;26327;42.550;23.120;2024-03-29T03:38:43;8.55;;;3.17;;
39680;SDS011;26327;42.550;23.120;2024-03-29T03:41:09;6.25;;;2.75;;
39680;SDS011;26327;42.550;23.120;2024-03-29T03:43:34;8.02;;;3.00;;
39680;SDS011;26327;42.550;23.120;2024-03-29T03:46:00;12.38;;;4.72;;
39680;SDS011;26327;42.550;23.120;2024-03-29T03:48:26;7.40;;;3.00;;
39680;SDS011;26327;42.550;23.120;2024-03-29T03:50:53;8.13;;;3.50;;
39680;SDS011;26327;42.550;23.120;2024-03-29T03:53:19;9.90;;;3.40;;
39680;SDS011;26327;42.550;23.120;2024-03-29T03:55:44;9.05;;;3.45;;
39680;SDS011;26327;42.550;23.120;2024-03-29T03:58:10;20.95;;;6.40;;
39680;SDS011;26327;42.550;23.120;2024-03-29T04:00:35;17.63;;;7.25;;
39680;SDS011;26327;42.550;23.120;2024-03-29T04:03:02;18.77;;;4.78;;
39680;SDS011;26327;42.550;23.120;2024-03-29T04:05:28;8.25;;;3.25;;
39680;SDS011;26327;42.550;23.120;2024-03-29T04:07:56;8.75;;;2.97;;
39680;SDS011;26327;42.550;23.120;2024-03-29T04:10:22;12.52;;;3.50;;
39680;SDS011;26327;42.550;23.120;2024-03-29T04:12:47;7.50;;;2.80;;
39680;SDS011;26327;42.550;23.120;2024-03-29T04:15:13;8.38;;;3.08;;
39680;SDS011;26327;42.550;23.120;2024-03-29T04:17:38;10.93;;;4.20;;
39680;SDS011;26327;42.550;23.120;2024-03-29T04:20:03;16.38;;;5.97;;
39680;SDS011;26327;42.550;23.120;2024-03-29T04:22:30;13.45;;;4.55;;
39680;SDS011;26327;42.550;23.120;2024-03-29T04:24:55;14.60;;;4.68;;
39680;SDS011;26327;42.550;23.120;2024-03-29T04:27:21;15.13;;;4.78;;
39680;SDS011;26327;42.550;23.120;2024-03-29T04:29:50;18.60;;;5.65;;
39680;SDS011;26327;42.550;23.120;2024-03-29T04:32:16;16.05;;;5.53;;
39680;SDS011;26327;42.550;23.120;2024-03-29T04:34:41;15.20;;;4.47;;
39680;SDS011;26327;42.550;23.120;2024-03-29T04:37:07;13.52;;;4.88;;
39680;SDS011;26327;42.550;23.120;2024-03-29T04:39:32;12.30;;;3.28;;
39680;SDS011;26327;42.550;23.120;2024-03-29T04:41:58;6.68;;;2.60;;
39680;SDS011;26327;42.550;23.120;2024-03-29T04:44:27;10.02;;;3.28;;
39680;SDS011;26327;42.550;23.120;2024-03-29T04:46:53;7.97;;;2.95;;
39680;SDS011;26327;42.550;23.120;2024-03-29T04:49:19;8.73;;;2.85;;
39680;SDS011;26327;42.550;23.120;2024-03-29T04:51:55;10.82;;;3.53;;
39680;SDS011;26327;42.550;23.120;2024-03-29T04:54:21;13.13;;;5.55;;
39680;SDS011;26327;42.550;23.120;2024-03-29T04:56:46;8.57;;;4.18;;
39680;SDS011;26327;42.550;23.120;2024-03-29T04:59:12;9.55;;;3.55;;
39680;SDS011;26327;42.550;23.120;2024-03-29T05:01:38;5.70;;;2.08;;
39680;SDS011;26327;42.550;23.120;2024-03-29T05:04:04;14.73;;;4.00;;
39680;SDS011;26327;42.550;23.120;2024-03-29T05:06:31;11.18;;;3.15;;
39680;SDS011;26327;42.550;23.120;2024-03-29T05:08:56;11.13;;;2.88;;
39680;SDS011;26327;42.550;23.120;2024-03-29T05:11:21;9.75;;;2.85;;
39680;SDS011;26327;42.550;23.120;2024-03-29T05:13:47;10.40;;;3.03;;
39680;SDS011;26327;42.550;23.120;2024-03-29T05:16:12;10.35;;;3.72;;
39680;SDS011;26327;42.550;23.120;2024-03-29T05:18:39;13.40;;;5.00;;
39680;SDS011;26327;42.550;23.120;2024-03-29T05:21:04;14.40;;;3.92;;
39680;SDS011;26327;42.550;23.120;2024-03-29T05:23:30;12.35;;;3.35;;
39680;SDS011;26327;42.550;23.120;2024-03-29T05:25:55;7.95;;;2.10;;
39680;SDS011;26327;42.550;23.120;2024-03-29T05:28:21;14.00;;;2.75;;
39680;SDS011;26327;42.550;23.120;2024-03-29T05:30:46;9.30;;;2.28;;
39680;SDS011;26327;42.550;23.120;2024-03-29T05:33:12;6.28;;;2.45;;
39680;SDS011;26327;42.550;23.120;2024-03-29T05:35:37;3.13;;;1.20;;
39680;SDS011;26327;42.550;23.120;2024-03-29T05:38:02;5.07;;;1.10;;
39680;SDS011;26327;42.550;23.120;2024-03-29T05:40:28;2.15;;;1.00;;
39680;SDS011;26327;42.550;23.120;2024-03-29T05:42:54;4.78;;;1.30;;
39680;SDS011;26327;42.550;23.120;2024-03-29T05:45:24;6.00;;;3.17;;
39680;SDS011;26327;42.550;23.120;2024-03-29T05:47:54;7.90;;;3.17;;
39680;SDS011;26327;42.550;23.120;2024-03-29T05:50:20;7.10;;;2.88;;
39680;SDS011;26327;42.550;23.120;2024-03-29T05:52:46;12.80;;;4.95;;
39680;SDS011;26327;42.550;23.120;2024-03-29T05:55:11;5.68;;;2.17;;
39680;SDS011;26327;42.550;23.120;2024-03-29T05:57:36;8.93;;;3.40;;
39680;SDS011;26327;42.550;23.120;2024-03-29T06:00:12;6.75;;;2.90;;
39680;SDS011;26327;42.550;23.120;2024-03-29T06:02:41;7.63;;;3.63;;
39680;SDS011;26327;42.550;23.120;2024-03-29T06:05:07;8.57;;;3.65;;
39680;SDS011;26327;42.550;23.120;2024-03-29T06:07:33;12.02;;;3.75;;
39680;SDS011;26327;42.550;23.120;2024-03-29T06:10:00;10.23;;;3.38;;
39680;SDS011;26327;42.550;23.120;2024-03-29T06:12:28;5.15;;;3.17;;
39680;SDS011;26327;42.550;23.120;2024-03-29T06:14:54;5.60;;;2.78;;
39680;SDS011;26327;42.550;23.120;2024-03-29T06:17:38;7.32;;;2.90;;
39680;SDS011;26327;42.550;23.120;2024-03-29T06:20:04;9.57;;;2.40;;
39680;SDS011;26327;42.550;23.120;2024-03-29T06:22:30;9.00;;;2.78;;
39680;SDS011;26327;42.550;23.120;2024-03-29T06:24:56;15.40;;;5.45;;
39680;SDS011;26327;42.550;23.120;2024-03-29T06:27:29;12.65;;;4.50;;
39680;SDS011;26327;42.550;23.120;2024-03-29T06:29:58;16.38;;;4.10;;
39680;SDS011;26327;42.550;23.120;2024-03-29T06:32:24;11.90;;;3.90;;
39680;SDS011;26327;42.550;23.120;2024-03-29T06:34:50;11.82;;;5.03;;
39680;SDS011;26327;42.550;23.120;2024-03-29T06:37:15;9.77;;;4.30;;
39680;SDS011;26327;42.550;23.120;2024-03-29T06:39:40;10.13;;;3.85;;
39680;SDS011;26327;42.550;23.120;2024-03-29T06:42:08;11.15;;;3.70;;
39680;SDS011;26327;42.550;23.120;2024-03-29T06:44:34;11.55;;;4.55;;
39680;SDS011;26327;42.550;23.120;2024-03-29T06:47:00;12.32;;;3.30;;
39680;SDS011;26327;42.550;23.120;2024-03-29T06:49:25;15.27;;;3.20;;
39680;SDS011;26327;42.550;23.120;2024-03-29T06:51:51;11.65;;;3.15;;
39680;SDS011;26327;42.550;23.120;2024-03-29T06:54:16;8.98;;;3.05;;
39680;SDS011;26327;42.550;23.120;2024-03-29T06:56:41;8.98;;;3.22;;
39680;SDS011;26327;42.550;23.120;2024-03-29T06:59:07;10.05;;;3.28;;
39680;SDS011;26327;42.550;23.120;2024-03-29T07:01:33;11.18;;;3.22;;
39680;SDS011;26327;42.550;23.120;2024-03-29T07:03:58;10.25;;;3.05;;
39680;SDS011;26327;42.550;23.120;2024-03-29T07:06:24;8.65;;;2.50;;
39680;SDS011;26327;42.550;23.120;2024-03-29T07:08:50;8.82;;;2.83;;
39680;SDS011;26327;42.550;23.120;2024-03-29T07:11:15;11.15;;;2.90;;
39680;SDS011;26327;42.550;23.120;2024-03-29T07:13:41;10.27;;;3.38;;
39680;SDS011;26327;42.550;23.120;2024-03-29T07:16:06;7.82;;;2.42;;
39680;SDS011;26327;42.550;23.120;2024-03-29T07:18:34;10.63;;;2.65;;
39680;SDS011;26327;42.550;23.120;2024-03-29T07:21:00;8.63;;;3.10;;
39680;SDS011;26327;42.550;23.120;2024-03-29T07:23:25;9.55;;;3.17;;
39680;SDS011;26327;42.550;23.120;2024-03-29T07:26:00;11.27;;;3.83;;
39680;SDS011;26327;42.550;23.120;2024-03-29T07:28:28;7.90;;;3.50;;
39680;SDS011;26327;42.550;23.120;2024-03-29T07:30:53;8.57;;;3.22;;
39680;SDS011;26327;42.550;23.120;2024-03-29T07:33:22;8.27;;;2.35;;
39680;SDS011;26327;42.550;23.120;2024-03-29T07:35:51;5.05;;;1.80;;
39680;SDS011;26327;42.550;23.120;2024-03-29T07:38:20;3.80;;;1.77;;
39680;SDS011;26327;42.550;23.120;2024-03-29T07:40:49;9.10;;;2.08;;
39680;SDS011;26327;42.550;23.120;2024-03-29T07:43:15;8.82;;;2.88;;
39680;SDS011;26327;42.550;23.120;2024-03-29T07:45:41;4.13;;;1.70;;
39680;SDS011;26327;42.550;23.120;2024-03-29T07:48:10;7.22;;;1.70;;
39680;SDS011;26327;42.550;23.120;2024-03-29T07:50:39;3.95;;;1.65;;
39680;SDS011;26327;42.550;23.120;2024-03-29T07:53:08;5.07;;;1.90;;
39680;SDS011;26327;42.550;23.120;2024-03-29T07:55:35;5.93;;;1.92;;
39680;SDS011;26327;42.550;23.120;2024-03-29T07:58:02;6.28;;;1.48;;
39680;SDS011;26327;42.550;23.120;2024-03-29T08:00:30;5.07;;;1.52;;
39680;SDS011;26327;42.550;23.120;2024-03-29T08:02:56;5.53;;;1.48;;
39680;SDS011;26327;42.550;23.120;2024-03-29T08:05:21;3.95;;;1.20;;
39680;SDS011;26327;42.550;23.120;2024-03-29T08:07:47;6.53;;;1.65;;
39680;SDS011;26327;42.550;23.120;2024-03-29T08:10:12;7.40;;;1.80;;
39680;SDS011;26327;42.550;23.120;2024-03-29T08:12:38;11.00;;;2.17;;
39680;SDS011;26327;42.550;23.120;2024-03-29T08:15:04;10.07;;;2.80;;
39680;SDS011;26327;42.550;23.120;2024-03-29T08:17:29;9.50;;;2.33;;
39680;SDS011;26327;42.550;23.120;2024-03-29T08:19:55;9.32;;;2.47;;
39680;SDS011;26327;42.550;23.120;2024-03-29T08:22:21;13.43;;;3.03;;
39680;SDS011;26327;42.550;23.120;2024-03-29T08:24:46;10.00;;;3.22;;
39680;SDS011;26327;42.550;23.120;2024-03-29T08:27:12;11.45;;;2.88;;
39680;SDS011;26327;42.550;23.120;2024-03-29T08:29:37;25.23;;;3.55;;
39680;SDS011;26327;42.550;23.120;2024-03-29T08:32:03;6.57;;;2.47;;
39680;SDS011;26327;42.550;23.120;2024-03-29T08:34:28;6.22;;;2.00;;
39680;SDS011;26327;42.550;23.120;2024-03-29T08:36:59;7.78;;;2.03;;
39680;SDS011;26327;42.550;23.120;2024-03-29T08:39:26;6.88;;;2.10;;
39680;SDS011;26327;42.550;23.120;2024-03-29T08:41:51;6.95;;;2.88;;
39680;SDS011;26327;42.550;23.120;2024-03-29T08:44:17;6.00;;;2.33;;
39680;SDS011;26327;42.550;23.120;2024-03-29T08:46:42;3.30;;;1.58;;
39680;SDS011;26327;42.550;23.120;2024-03-29T08:49:08;7.93;;;2.20;;
39680;SDS011;26327;42.550;23.120;2024-03-29T08:51:33;6.10;;;1.90;;
39680;SDS011;26327;42.550;23.120;2024-03-29T08:53:58;7.57;;;2.03;;
39680;SDS011;26327;42.550;23.120;2024-03-29T08:56:24;6.50;;;1.50;;
39680;SDS011;26327;42.550;23.120;2024-03-29T08:58:49;6.72;;;1.58;;
39680;SDS011;26327;42.550;23.120;2024-03-29T09:01:15;3.90;;;2.38;;
39680;SDS011;26327;42.550;23.120;2024-03-29T09:03:40;9.60;;;1.77;;
39680;SDS011;26327;42.550;23.120;2024-03-29T09:06:06;4.80;;;1.20;;
39680;SDS011;26327;42.550;23.120;2024-03-29T09:08:31;6.10;;;1.52;;
39680;SDS011;26327;42.550;23.120;2024-03-29T09:10:57;5.85;;;1.52;;
39680;SDS011;26327;42.550;23.120;2024-03-29T09:13:23;4.25;;;1.40;;
39680;SDS011;26327;42.550;23.120;2024-03-29T09:15:48;3.38;;;1.40;;
39680;SDS011;26327;42.550;23.120;2024-03-29T09:18:14;3.97;;;1.60;;
39680;SDS011;26327;42.550;23.120;2024-03-29T09:20:57;5.00;;;1.85;;
39680;SDS011;26327;42.550;23.120;2024-03-29T09:23:26;4.82;;;1.17;;
39680;SDS011;26327;42.550;23.120;2024-03-29T09:25:55;2.28;;;0.95;;
39680;SDS011;26327;42.550;23.120;2024-03-29T09:28:24;4.22;;;1.25;;
39680;SDS011;26327;42.550;23.120;2024-03-29T09:30:49;5.40;;;1.10;;
39680;SDS011;26327;42.550;23.120;2024-03-29T09:33:15;4.72;;;2.00;;
39680;SDS011;26327;42.550;23.120;2024-03-29T09:35:41;3.38;;;1.23;;
39680;SDS011;26327;42.550;23.120;2024-03-29T09:38:06;5.05;;;1.40;;
39680;SDS011;26327;42.550;23.120;2024-03-29T09:40:32;4.65;;;1.40;;
39680;SDS011;26327;42.550;23.120;2024-03-29T09:42:59;4.15;;;1.23;;
39680;SDS011;26327;42.550;23.120;2024-03-29T09:47:57;16.02;;;8.52;;
39680;SDS011;26327;42.550;23.120;2024-03-29T09:50:26;4.33;;;1.43;;
39680;SDS011;26327;42.550;23.120;2024-03-29T09:52:51;6.25;;;1.50;;
39680;SDS011;26327;42.550;23.120;2024-03-29T09:55:18;6.70;;;1.67;;
39680;SDS011;26327;42.550;23.120;2024-03-29T09:57:45;4.47;;;1.38;;
39680;SDS011;26327;42.550;23.120;2024-03-29T10:00:11;3.28;;;1.25;;
39680;SDS011;26327;42.550;23.120;2024-03-29T10:02:37;3.33;;;1.17;;
39680;SDS011;26327;42.550;23.120;2024-03-29T10:05:03;1.80;;;0.90;;
39680;SDS011;26327;42.550;23.120;2024-03-29T10:07:33;3.95;;;1.33;;
39680;SDS011;26327;42.550;23.120;2024-03-29T10:10:01;4.47;;;1.40;;
39680;SDS011;26327;42.550;23.120;2024-03-29T10:12:27;3.35;;;1.20;;
39680;SDS011;26327;42.550;23.120;2024-03-29T10:14:53;5.85;;;1.35;;
39680;SDS011;26327;42.550;23.120;2024-03-29T10:17:35;5.00;;;1.30;;
39680;SDS011;26327;42.550;23.120;2024-03-29T10:20:03;3.00;;;1.35;;
39680;SDS011;26327;42.550;23.120;2024-03-29T10:22:29;2.72;;;1.10;;
39680;SDS011;26327;42.550;23.120;2024-03-29T10:25:00;3.80;;;1.40;;
39680;SDS011;26327;42.550;23.120;2024-03-29T10:27:26;3.88;;;1.13;;
39680;SDS011;26327;42.550;23.120;2024-03-29T10:29:54;6.13;;;1.40;;
39680;SDS011;26327;42.550;23.120;2024-03-29T10:32:20;2.85;;;1.25;;
39680;SDS011;26327;42.550;23.120;2024-03-29T10:34:45;4.70;;;1.48;;
39680;SDS011;26327;42.550;23.120;2024-03-29T10:37:13;3.63;;;1.13;;
39680;SDS011;26327;42.550;23.120;2024-03-29T10:39:44;3.97;;;1.10;;
39680;SDS011;26327;42.550;23.120;2024-03-29T10:42:09;6.25;;;1.60;;
39680;SDS011;26327;42.550;23.120;2024-03-29T10:44:37;2.92;;;1.20;;
39680;SDS011;26327;42.550;23.120;2024-03-29T10:47:04;4.68;;;1.40;;
39680;SDS011;26327;42.550;23.120;2024-03-29T10:49:31;4.15;;;1.80;;
39680;SDS011;26327;42.550;23.120;2024-03-29T10:51:59;8.40;;;1.73;;
39680;SDS011;26327;42.550;23.120;2024-03-29T10:54:24;5.18;;;1.25;;
39680;SDS011;26327;42.550;23.120;2024-03-29T10:56:57;4.05;;;1.30;;
39680;SDS011;26327;42.550;23.120;2024-03-29T10:59:35;6.55;;;1.30;;
39680;SDS011;26327;42.550;23.120;2024-03-29T11:02:15;3.55;;;1.30;;
39680;SDS011;26327;42.550;23.120;2024-03-29T11:04:56;4.40;;;1.10;;
39680;SDS011;26327;42.550;23.120;2024-03-29T11:07:26;3.17;;;1.30;;
39680;SDS011;26327;42.550;23.120;2024-03-29T11:09:52;2.47;;;1.00;;
39680;SDS011;26327;42.550;23.120;2024-03-29T11:12:25;2.40;;;1.02;;
39680;SDS011;26327;42.550;23.120;2024-03-29T11:14:55;2.58;;;1.10;;
39680;SDS011;26327;42.550;23.120;2024-03-29T11:17:28;3.40;;;1.10;;
39680;SDS011;26327;42.550;23.120;2024-03-29T11:19:55;2.22;;;1.05;;
39680;SDS011;26327;42.550;23.120;2024-03-29T11:22:22;1.45;;;0.80;;
39680;SDS011;26327;42.550;23.120;2024-03-29T11:24:50;2.53;;;0.90;;
39680;SDS011;26327;42.550;23.120;2024-03-29T11:27:15;4.68;;;1.02;;
39680;SDS011;26327;42.550;23.120;2024-03-29T11:29:42;2.88;;;1.30;;
39680;SDS011;26327;42.550;23.120;2024-03-29T11:32:10;3.95;;;0.98;;
39680;SDS011;26327;42.550;23.120;2024-03-29T11:34:42;2.25;;;0.90;;
39680;SDS011;26327;42.550;23.120;2024-03-29T11:37:11;1.40;;;0.80;;
39680;SDS011;26327;42.550;23.120;2024-03-29T11:39:46;3.70;;;0.95;;
39680;SDS011;26327;42.550;23.120;2024-03-29T11:42:12;2.47;;;0.85;;
39680;SDS011;26327;42.550;23.120;2024-03-29T11:44:38;1.60;;;0.90;;
39680;SDS011;26327;42.550;23.120;2024-03-29T11:47:04;2.40;;;0.90;;
39680;SDS011;26327;42.550;23.120;2024-03-29T11:49:32;2.17;;;0.82;;
39680;SDS011;26327;42.550;23.120;2024-03-29T11:52:04;3.45;;;0.90;;
39680;SDS011;26327;42.550;23.120;2024-03-29T11:54:37;3.60;;;1.00;;
39680;SDS011;26327;42.550;23.120;2024-03-29T11:57:03;2.15;;;0.90;;
39680;SDS011;26327;42.550;23.120;2024-03-29T11:59:28;3.70;;;0.98;;
39680;SDS011;26327;42.550;23.120;2024-03-29T12:01:54;2.00;;;0.90;;
39680;SDS011;26327;42.550;23.120;2024-03-29T12:04:20;2.03;;;0.70;;
39680;SDS011;26327;42.550;23.120;2024-03-29T12:06:46;2.22;;;0.80;;
39680;SDS011;26327;42.550;23.120;2024-03-29T12:09:12;1.73;;;0.90;;
39680;SDS011;26327;42.550;23.120;2024-03-29T12:11:38;2.35;;;0.70;;
39680;SDS011;26327;42.550;23.120;2024-03-29T12:14:10;4.75;;;1.10;;
39680;SDS011;26327;42.550;23.120;2024-03-29T12:16:43;2.97;;;0.80;;
39680;SDS011;26327;42.550;23.120;2024-03-29T12:19:10;1.52;;;0.73;;
39680;SDS011;26327;42.550;23.120;2024-03-29T12:21:35;2.45;;;0.90;;
39680;SDS011;26327;42.550;23.120;2024-03-29T12:24:01;1.55;;;0.90;;
39680;SDS011;26327;42.550;23.120;2024-03-29T12:26:26;1.98;;;0.70;;
39680;SDS011;26327;42.550;23.120;2024-03-29T12:28:55;2.33;;;0.90;;
39680;SDS011;26327;42.550;23.120;2024-03-29T12:31:21;3.90;;;0.80;;
39680;SDS011;26327;42.550;23.120;2024-03-29T12:33:50;2.05;;;0.90;;
39680;SDS011;26327;42.550;23.120;2024-03-29T12:36:17;2.55;;;0.93;;
39680;SDS011;26327;42.550;23.120;2024-03-29T12:38:45;4.22;;;0.70;;
39680;SDS011;26327;42.550;23.120;2024-03-29T12:41:13;2.70;;;1.00;;
39680;SDS011;26327;42.550;23.120;2024-03-29T12:43:38;1.98;;;1.00;;
39680;SDS011;26327;42.550;23.120;2024-03-29T12:46:04;1.73;;;0.80;;
39680;SDS011;26327;42.550;23.120;2024-03-29T12:48:29;3.63;;;0.90;;
39680;SDS011;26327;42.550;23.120;2024-03-29T12:50:55;2.75;;;0.80;;
39680;SDS011;26327;42.550;23.120;2024-03-29T12:53:20;2.45;;;0.70;;
39680;SDS011;26327;42.550;23.120;2024-03-29T12:55:47;3.10;;;0.95;;
39680;SDS011;26327;42.550;23.120;2024-03-29T12:58:16;2.83;;;0.70;;
39680;SDS011;26327;42.550;23.120;2024-03-29T13:00:45;1.55;;;0.70;;
39680;SDS011;26327;42.550;23.120;2024-03-29T13:03:10;2.05;;;0.80;;
39680;SDS011;26327;42.550;23.120;2024-03-29T13:05:36;2.05;;;0.80;;
39680;SDS011;26327;42.550;23.120;2024-03-29T13:08:13;6.65;;;0.90;;
39680;SDS011;26327;42.550;23.120;2024-03-29T13:10:43;3.65;;;0.60;;
39680;SDS011;26327;42.550;23.120;2024-03-29T13:13:09;2.45;;;0.73;;
39680;SDS011;26327;42.550;23.120;2024-03-29T13:15:35;4.05;;;0.80;;
39680;SDS011;26327;42.550;23.120;2024-03-29T13:18:02;3.80;;;0.80;;
39680;SDS011;26327;42.550;23.120;2024-03-29T13:20:32;1.85;;;0.80;;
39680;SDS011;26327;42.550;23.120;2024-03-29T13:22:59;1.15;;;0.68;;
39680;SDS011;26327;42.550;23.120;2024-03-29T13:25:25;4.35;;;1.10;;
39680;SDS011;26327;42.550;23.120;2024-03-29T13:27:51;1.48;;;0.60;;
39680;SDS011;26327;42.550;23.120;2024-03-29T13:30:21;2.38;;;0.65;;
39680;SDS011;26327;42.550;23.120;2024-03-29T13:32:49;0.60;;;0.40;;
39680;SDS011;26327;42.550;23.120;2024-03-29T13:35:15;2.50;;;0.70;;
39680;SDS011;26327;42.550;23.120;2024-03-29T13:37:42;2.33;;;0.80;;
39680;SDS011;26327;42.550;23.120;2024-03-29T13:40:09;4.55;;;0.82;;
39680;SDS011;26327;42.550;23.120;2024-03-29T13:42:36;1.60;;;0.60;;
39680;SDS011;26327;42.550;23.120;2024-03-29T13:45:02;1.48;;;0.70;;
39680;SDS011;26327;42.550;23.120;2024-03-29T13:47:28;1.73;;;0.60;;
39680;SDS011;26327;42.550;23.120;2024-03-29T13:49:54;2.10;;;0.68;;
39680;SDS011;26327;42.550;23.120;2024-03-29T13:52:21;1.27;;;0.55;;
39680;SDS011;26327;42.550;23.120;2024-03-29T13:54:47;1.38;;;0.63;;
39680;SDS011;26327;42.550;23.120;2024-03-29T13:57:13;1.80;;;0.60;;
39680;SDS011;26327;42.550;23.120;2024-03-29T13:59:39;2.33;;;0.70;;
39680;SDS011;26327;42.550;23.120;2024-03-29T14:02:04;2.97;;;0.80;;
39680;SDS011;26327;42.550;23.120;2024-03-29T14:04:30;7.13;;;1.60;;
39680;SDS011;26327;42.550;23.120;2024-03-29T14:06:56;2.05;;;0.82;;
39680;SDS011;26327;42.550;23.120;2024-03-29T14:09:21;2.17;;;0.68;;
39680;SDS011;26327;42.550;23.120;2024-03-29T14:11:47;4.78;;;0.90;;
39680;SDS011;26327;42.550;23.120;2024-03-29T14:14:12;3.65;;;0.80;;
39680;SDS011;26327;42.550;23.120;2024-03-29T14:16:38;1.73;;;0.70;;
39680;SDS011;26327;42.550;23.120;2024-03-29T14:19:03;2.50;;;0.70;;
39680;SDS011;26327;42.550;23.120;2024-03-29T14:21:29;3.88;;;0.60;;
39680;SDS011;26327;42.550;23.120;2024-03-29T14:23:55;5.28;;;1.23;;
39680;SDS011;26327;42.550;23.120;2024-03-29T14:26:21;2.78;;;0.70;;
39680;SDS011;26327;42.550;23.120;2024-03-29T14:28:46;2.35;;;0.70;;
39680;SDS011;26327;42.550;23.120;2024-03-29T14:31:12;2.30;;;0.70;;